map of BDQ home
BDQ - Airport
Location
City:  Vadodara, Gujarat, India
ICAO:VABO
IATA:BDQ

Details
Type:Airport (Aerodrome, Airfield)
Use:Public/Civil
Latitude:2220'10"N (22.336164)
Longitude:7313'35"E (73.226289)
Datum:WGS 1984
Elevation:129 ft (39 m)
Variation:0.29E (WMM2015 magnetic declination)
0.07 annual change
Runways:1
Longest:8100 × 150 ft (2469 × 45.5 m), paved

Time
Time Zone:UTC+5:30
Local Time:

Weather
METAR:VABO 260900Z 27010KT 6000 NSC 41/14 Q1002 NOSIG
TAF:VABO 252300Z 2600/2609 27006KT 4000 FU NSC
BECMG 2601/2603 25005KT 3000
BECMG 2604/2606 27008KT 6000

Related Locations
Nearby:
Farthest:IPC: 12061 mi / 19411 km
Easter Island (Isla de Pascua, Rapa Nui) [Mataveri Intl], VS, CL

Find:

   beyond  
but within

Other Information
Maps:
NOTAMs:
Links:
Sources:

  
flag of India   

Sectional Chart

Flight Planning
at skyvector.com

Satellite Image

Google Maps Satellite view

 

Copyright © 2004-2017 Karl L. Swartz. All rights reserved.
The Great Circle Mapper name and logo are trademarks of the Great Circle Mapper.
All other trademarks mentioned herein belong to their respective owners.
Please see credits for attibutions and further copyright information.

  Follow gcmap on Facebook Follow gcmap on Twitter Follow gcmap on Google+ GCmap on LinkedIn

hCard Microformat

Geo Microformat